sensor_id;sensor_type;location;lat;lon;timestamp;pressure;altitude;pressure_sealevel;temperature;humidity
62031;BME280;62035;52.094;5.112;2022-12-07T00:01:22;101962.84;;;6.83;100.00
62031;BME280;62035;52.094;5.112;2022-12-07T00:03:54;101951.00;;;6.76;100.00
62031;BME280;62035;52.094;5.112;2022-12-07T00:06:26;101950.94;;;6.90;100.00
62031;BME280;62035;52.094;5.112;2022-12-07T00:08:54;101949.13;;;7.05;100.00
62031;BME280;62035;52.094;5.112;2022-12-07T00:11:22;101949.31;;;7.01;100.00
62031;BME280;62035;52.094;5.112;2022-12-07T00:13:52;101952.53;;;6.92;100.00
62031;BME280;62035;52.094;5.112;2022-12-07T00:16:22;101949.59;;;6.70;100.00
62031;BME280;62035;52.094;5.112;2022-12-07T00:18:55;101955.53;;;6.59;100.00
62031;BME280;62035;52.094;5.112;2022-12-07T00:21:24;101946.19;;;6.54;100.00
62031;BME280;62035;52.094;5.112;2022-12-07T00:23:54;101944.50;;;6.53;100.00
62031;BME280;62035;52.094;5.112;2022-12-07T00:26:25;101943.16;;;6.46;100.00
62031;BME280;62035;52.094;5.112;2022-12-07T00:28:56;101938.16;;;6.55;100.00
62031;BME280;62035;52.094;5.112;2022-12-07T00:31:27;101933.16;;;6.51;100.00
62031;BME280;62035;52.094;5.112;2022-12-07T00:33:58;101930.69;;;6.62;100.00
62031;BME280;62035;52.094;5.112;2022-12-07T00:36:26;101925.78;;;6.70;100.00
62031;BME280;62035;52.094;5.112;2022-12-07T00:38:54;101931.53;;;6.62;100.00
62031;BME280;62035;52.094;5.112;2022-12-07T00:41:23;101933.63;;;6.57;100.00
62031;BME280;62035;52.094;5.112;2022-12-07T00:43:53;101934.19;;;6.48;100.00
62031;BME280;62035;52.094;5.112;2022-12-07T00:46:21;101930.22;;;6.41;100.00
62031;BME280;62035;52.094;5.112;2022-12-07T00:48:51;101936.94;;;6.04;100.00
62031;BME280;62035;52.094;5.112;2022-12-07T00:51:22;101945.72;;;6.05;100.00
62031;BME280;62035;52.094;5.112;2022-12-07T00:53:51;101946.47;;;6.07;100.00
62031;BME280;62035;52.094;5.112;2022-12-07T00:56:21;101942.91;;;6.22;100.00
62031;BME280;62035;52.094;5.112;2022-12-07T00:58:51;101942.59;;;6.41;100.00
62031;BME280;62035;52.094;5.112;2022-12-07T01:01:20;101926.88;;;6.39;100.00
62031;BME280;62035;52.094;5.112;2022-12-07T01:03:48;101924.22;;;6.39;100.00
62031;BME280;62035;52.094;5.112;2022-12-07T01:06:17;101929.41;;;6.12;100.00
62031;BME280;62035;52.094;5.112;2022-12-07T01:08:48;101924.78;;;6.01;100.00
62031;BME280;62035;52.094;5.112;2022-12-07T01:11:18;101901.59;;;5.77;100.00
62031;BME280;62035;52.094;5.112;2022-12-07T01:13:47;101926.06;;;5.80;100.00
62031;BME280;62035;52.094;5.112;2022-12-07T01:16:17;101924.97;;;5.68;100.00
62031;BME280;62035;52.094;5.112;2022-12-07T01:18:47;101929.28;;;5.85;100.00
62031;BME280;62035;52.094;5.112;2022-12-07T01:21:19;101938.84;;;5.72;100.00
62031;BME280;62035;52.094;5.112;2022-12-07T01:23:50;101937.03;;;6.02;100.00
62031;BME280;62035;52.094;5.112;2022-12-07T01:26:20;101933.69;;;5.85;100.00
62031;BME280;62035;52.094;5.112;2022-12-07T01:28:51;101941.22;;;5.92;100.00
62031;BME280;62035;52.094;5.112;2022-12-07T01:31:22;101939.69;;;6.02;100.00
62031;BME280;62035;52.094;5.112;2022-12-07T01:33:54;101938.75;;;6.03;100.00
62031;BME280;62035;52.094;5.112;2022-12-07T01:36:25;101934.78;;;6.11;100.00
62031;BME280;62035;52.094;5.112;2022-12-07T01:38:58;101932.50;;;6.05;100.00
62031;BME280;62035;52.094;5.112;2022-12-07T01:41:29;101935.91;;;6.07;100.00
62031;BME280;62035;52.094;5.112;2022-12-07T01:44:19;101933.59;;;5.86;100.00
62031;BME280;62035;52.094;5.112;2022-12-07T01:46:49;101931.59;;;5.76;100.00
62031;BME280;62035;52.094;5.112;2022-12-07T01:49:26;101936.66;;;5.64;100.00
62031;BME280;62035;52.094;5.112;2022-12-07T01:52:06;101940.81;;;5.54;100.00
62031;BME280;62035;52.094;5.112;2022-12-07T01:54:42;101948.06;;;5.65;100.00
62031;BME280;62035;52.094;5.112;2022-12-07T01:57:13;101946.66;;;5.89;100.00
62031;BME280;62035;52.094;5.112;2022-12-07T01:59:44;101949.47;;;5.86;100.00
62031;BME280;62035;52.094;5.112;2022-12-07T02:02:18;101945.53;;;5.93;100.00
62031;BME280;62035;52.094;5.112;2022-12-07T02:04:51;101943.75;;;5.94;100.00
62031;BME280;62035;52.094;5.112;2022-12-07T02:07:20;101935.41;;;5.86;100.00
62031;BME280;62035;52.094;5.112;2022-12-07T02:09:51;101943.59;;;5.81;100.00
62031;BME280;62035;52.094;5.112;2022-12-07T02:12:19;101937.34;;;5.98;100.00
62031;BME280;62035;52.094;5.112;2022-12-07T02:14:49;101935.16;;;6.05;100.00
62031;BME280;62035;52.094;5.112;2022-12-07T02:17:22;101926.84;;;6.11;100.00
62031;BME280;62035;52.094;5.112;2022-12-07T02:20:21;101924.78;;;6.16;100.00
62031;BME280;62035;52.094;5.112;2022-12-07T02:23:23;101919.41;;;6.31;100.00
62031;BME280;62035;52.094;5.112;2022-12-07T02:26:37;101919.03;;;6.38;100.00
62031;BME280;62035;52.094;5.112;2022-12-07T02:29:33;101914.69;;;6.37;100.00
62031;BME280;62035;52.094;5.112;2022-12-07T02:32:10;101911.16;;;6.50;100.00
62031;BME280;62035;52.094;5.112;2022-12-07T02:34:48;101905.13;;;6.48;100.00
62031;BME280;62035;52.094;5.112;2022-12-07T02:37:27;101907.94;;;6.45;100.00
62031;BME280;62035;52.094;5.112;2022-12-07T02:40:07;101905.72;;;6.39;100.00
62031;BME280;62035;52.094;5.112;2022-12-07T02:42:42;101910.34;;;6.21;100.00
62031;BME280;62035;52.094;5.112;2022-12-07T02:45:18;101907.13;;;6.16;100.00
62031;BME280;62035;52.094;5.112;2022-12-07T02:47:51;101907.69;;;6.07;100.00
62031;BME280;62035;52.094;5.112;2022-12-07T02:50:25;101909.25;;;5.81;100.00
62031;BME280;62035;52.094;5.112;2022-12-07T02:52:54;101909.34;;;5.80;100.00
62031;BME280;62035;52.094;5.112;2022-12-07T02:55:34;101911.16;;;5.79;100.00
62031;BME280;62035;52.094;5.112;2022-12-07T02:58:23;101912.09;;;5.78;100.00
62031;BME280;62035;52.094;5.112;2022-12-07T03:01:11;101914.69;;;5.94;100.00
62031;BME280;62035;52.094;5.112;2022-12-07T03:03:49;101916.84;;;6.01;100.00
62031;BME280;62035;52.094;5.112;2022-12-07T03:06:31;101910.97;;;5.82;100.00
62031;BME280;62035;52.094;5.112;2022-12-07T03:09:11;101909.94;;;5.85;100.00
62031;BME280;62035;52.094;5.112;2022-12-07T03:11:48;101908.97;;;5.72;100.00
62031;BME280;62035;52.094;5.112;2022-12-07T03:14:26;101905.09;;;5.77;100.00
62031;BME280;62035;52.094;5.112;2022-12-07T03:17:03;101904.63;;;5.70;100.00
62031;BME280;62035;52.094;5.112;2022-12-07T03:19:37;101902.38;;;5.79;100.00
62031;BME280;62035;52.094;5.112;2022-12-07T03:22:09;101904.34;;;5.75;100.00
62031;BME280;62035;52.094;5.112;2022-12-07T03:24:49;101909.16;;;5.83;100.00
62031;BME280;62035;52.094;5.112;2022-12-07T03:27:22;101904.63;;;5.70;100.00
62031;BME280;62035;52.094;5.112;2022-12-07T03:30:00;101895.53;;;5.60;100.00
62031;BME280;62035;52.094;5.112;2022-12-07T03:32:35;101897.59;;;5.41;100.00
62031;BME280;62035;52.094;5.112;2022-12-07T03:35:10;101908.56;;;5.19;100.00
62031;BME280;62035;52.094;5.112;2022-12-07T03:37:49;101876.84;;;4.89;100.00
62031;BME280;62035;52.094;5.112;2022-12-07T03:40:25;101900.25;;;5.25;100.00
62031;BME280;62035;52.094;5.112;2022-12-07T03:42:56;101900.72;;;5.18;100.00
62031;BME280;62035;52.094;5.112;2022-12-07T03:45:32;101893.06;;;5.43;100.00
62031;BME280;62035;52.094;5.112;2022-12-07T03:48:12;101900.34;;;5.54;100.00
62031;BME280;62035;52.094;5.112;2022-12-07T03:50:51;101897.53;;;5.71;100.00
62031;BME280;62035;52.094;5.112;2022-12-07T03:53:26;101905.91;;;5.93;100.00
62031;BME280;62035;52.094;5.112;2022-12-07T03:56:01;101903.34;;;6.06;100.00
62031;BME280;62035;52.094;5.112;2022-12-07T03:58:31;101897.22;;;5.91;100.00
62031;BME280;62035;52.094;5.112;2022-12-07T04:01:01;101895.53;;;5.90;100.00
62031;BME280;62035;52.094;5.112;2022-12-07T04:03:30;101894.81;;;5.58;100.00
62031;BME280;62035;52.094;5.112;2022-12-07T04:05:58;101894.00;;;5.42;100.00
62031;BME280;62035;52.094;5.112;2022-12-07T04:08:26;101898.19;;;5.60;100.00
62031;BME280;62035;52.094;5.112;2022-12-07T04:10:54;101889.88;;;5.52;100.00
62031;BME280;62035;52.094;5.112;2022-12-07T04:13:21;101901.97;;;5.70;100.00
62031;BME280;62035;52.094;5.112;2022-12-07T04:15:49;101897.31;;;5.60;100.00
62031;BME280;62035;52.094;5.112;2022-12-07T04:18:17;101889.53;;;5.58;100.00
62031;BME280;62035;52.094;5.112;2022-12-07T04:20:46;101901.28;;;5.53;100.00
62031;BME280;62035;52.094;5.112;2022-12-07T04:23:14;101894.09;;;5.41;100.00
62031;BME280;62035;52.094;5.112;2022-12-07T04:25:42;101897.25;;;5.31;100.00
62031;BME280;62035;52.094;5.112;2022-12-07T04:28:09;101888.00;;;5.24;100.00
62031;BME280;62035;52.094;5.112;2022-12-07T04:30:37;101894.69;;;5.16;100.00
62031;BME280;62035;52.094;5.112;2022-12-07T04:33:05;101890.63;;;5.24;100.00
62031;BME280;62035;52.094;5.112;2022-12-07T04:35:32;101891.94;;;5.47;100.00
62031;BME280;62035;52.094;5.112;2022-12-07T04:38:01;101883.56;;;5.55;100.00
62031;BME280;62035;52.094;5.112;2022-12-07T04:40:29;101887.91;;;5.56;100.00
62031;BME280;62035;52.094;5.112;2022-12-07T04:42:56;101893.50;;;5.35;100.00
62031;BME280;62035;52.094;5.112;2022-12-07T04:45:24;101892.13;;;5.44;100.00
62031;BME280;62035;52.094;5.112;2022-12-07T04:47:52;101882.06;;;5.51;100.00
62031;BME280;62035;52.094;5.112;2022-12-07T04:50:19;101880.84;;;5.56;100.00
62031;BME280;62035;52.094;5.112;2022-12-07T04:52:47;101884.13;;;5.46;100.00
62031;BME280;62035;52.094;5.112;2022-12-07T04:55:16;101879.91;;;5.27;100.00
62031;BME280;62035;52.094;5.112;2022-12-07T04:57:44;101871.91;;;5.29;100.00
62031;BME280;62035;52.094;5.112;2022-12-07T05:00:11;101877.25;;;5.13;100.00
62031;BME280;62035;52.094;5.112;2022-12-07T05:02:39;101874.25;;;5.19;100.00
62031;BME280;62035;52.094;5.112;2022-12-07T05:05:07;101866.13;;;5.22;100.00
62031;BME280;62035;52.094;5.112;2022-12-07T05:07:35;101853.38;;;5.45;100.00
62031;BME280;62035;52.094;5.112;2022-12-07T05:10:03;101869.25;;;5.73;100.00
62031;BME280;62035;52.094;5.112;2022-12-07T05:12:33;101872.94;;;5.85;100.00
62031;BME280;62035;52.094;5.112;2022-12-07T05:15:00;101872.78;;;6.02;100.00
62031;BME280;62035;52.094;5.112;2022-12-07T05:17:28;101867.31;;;5.91;100.00
62031;BME280;62035;52.094;5.112;2022-12-07T05:19:56;101868.69;;;5.68;100.00
62031;BME280;62035;52.094;5.112;2022-12-07T05:22:23;101872.28;;;5.81;100.00
62031;BME280;62035;52.094;5.112;2022-12-07T05:24:54;101876.22;;;5.74;100.00
62031;BME280;62035;52.094;5.112;2022-12-07T05:27:22;101866.06;;;5.82;100.00
62031;BME280;62035;52.094;5.112;2022-12-07T05:29:51;101859.47;;;6.03;100.00
62031;BME280;62035;52.094;5.112;2022-12-07T05:32:19;101863.56;;;5.95;100.00
62031;BME280;62035;52.094;5.112;2022-12-07T05:34:47;101860.63;;;5.99;100.00
62031;BME280;62035;52.094;5.112;2022-12-07T05:37:14;101873.28;;;5.94;100.00
62031;BME280;62035;52.094;5.112;2022-12-07T05:39:42;101871.16;;;5.85;100.00
62031;BME280;62035;52.094;5.112;2022-12-07T05:42:10;101870.63;;;5.94;100.00
62031;BME280;62035;52.094;5.112;2022-12-07T05:44:40;101870.91;;;5.90;100.00
62031;BME280;62035;52.094;5.112;2022-12-07T05:47:11;101857.84;;;5.87;100.00
62031;BME280;62035;52.094;5.112;2022-12-07T05:49:39;101857.47;;;6.07;100.00
62031;BME280;62035;52.094;5.112;2022-12-07T05:52:07;101866.44;;;6.05;100.00
62031;BME280;62035;52.094;5.112;2022-12-07T05:54:34;101854.84;;;6.07;100.00
62031;BME280;62035;52.094;5.112;2022-12-07T05:57:02;101864.84;;;5.88;100.00
62031;BME280;62035;52.094;5.112;2022-12-07T05:59:30;101858.72;;;6.01;100.00
62031;BME280;62035;52.094;5.112;2022-12-07T06:02:00;101855.81;;;5.92;100.00
62031;BME280;62035;52.094;5.112;2022-12-07T06:04:33;101856.91;;;6.02;100.00
62031;BME280;62035;52.094;5.112;2022-12-07T06:07:03;101858.00;;;5.99;100.00
62031;BME280;62035;52.094;5.112;2022-12-07T06:09:31;101859.78;;;5.99;100.00
62031;BME280;62035;52.094;5.112;2022-12-07T06:11:59;101868.50;;;5.71;100.00
62031;BME280;62035;52.094;5.112;2022-12-07T06:14:45;101867.91;;;5.52;100.00
62031;BME280;62035;52.094;5.112;2022-12-07T06:17:13;101864.81;;;5.74;100.00
62031;BME280;62035;52.094;5.112;2022-12-07T06:19:43;101858.03;;;5.84;100.00
62031;BME280;62035;52.094;5.112;2022-12-07T06:22:11;101864.94;;;6.00;100.00
62031;BME280;62035;52.094;5.112;2022-12-07T06:24:39;101864.19;;;6.13;100.00
62031;BME280;62035;52.094;5.112;2022-12-07T06:27:07;101868.34;;;6.02;100.00
62031;BME280;62035;52.094;5.112;2022-12-07T06:29:36;101864.19;;;6.27;100.00
62031;BME280;62035;52.094;5.112;2022-12-07T06:32:04;101858.13;;;6.25;100.00
62031;BME280;62035;52.094;5.112;2022-12-07T06:34:32;101852.75;;;6.26;100.00
62031;BME280;62035;52.094;5.112;2022-12-07T06:37:01;101857.00;;;6.29;100.00
62031;BME280;62035;52.094;5.112;2022-12-07T06:39:29;101856.81;;;6.32;100.00
62031;BME280;62035;52.094;5.112;2022-12-07T06:41:57;101862.88;;;6.20;100.00
62031;BME280;62035;52.094;5.112;2022-12-07T06:44:25;101850.59;;;6.05;100.00
62031;BME280;62035;52.094;5.112;2022-12-07T06:46:53;101854.75;;;6.09;100.00
62031;BME280;62035;52.094;5.112;2022-12-07T06:49:21;101861.16;;;6.05;100.00
62031;BME280;62035;52.094;5.112;2022-12-07T06:51:48;101859.13;;;5.95;100.00
62031;BME280;62035;52.094;5.112;2022-12-07T06:54:17;101864.94;;;6.00;100.00
62031;BME280;62035;52.094;5.112;2022-12-07T06:56:45;101872.31;;;6.10;100.00
62031;BME280;62035;52.094;5.112;2022-12-07T06:59:13;101871.53;;;6.22;100.00
62031;BME280;62035;52.094;5.112;2022-12-07T07:01:41;101865.78;;;6.29;100.00
62031;BME280;62035;52.094;5.112;2022-12-07T07:04:08;101868.53;;;6.14;100.00
62031;BME280;62035;52.094;5.112;2022-12-07T07:06:36;101863.16;;;6.15;100.00
62031;BME280;62035;52.094;5.112;2022-12-07T07:09:03;101864.94;;;6.00;100.00
62031;BME280;62035;52.094;5.112;2022-12-07T07:11:32;101874.22;;;5.93;100.00
62031;BME280;62035;52.094;5.112;2022-12-07T07:14:00;101868.31;;;5.88;100.00
62031;BME280;62035;52.094;5.112;2022-12-07T07:16:28;101866.25;;;5.79;100.00
62031;BME280;62035;52.094;5.112;2022-12-07T07:18:57;101859.31;;;5.62;100.00
62031;BME280;62035;52.094;5.112;2022-12-07T07:21:24;101861.78;;;5.51;100.00
62031;BME280;62035;52.094;5.112;2022-12-07T07:23:52;101866.03;;;5.54;100.00
62031;BME280;62035;52.094;5.112;2022-12-07T07:26:20;101861.97;;;5.62;100.00
62031;BME280;62035;52.094;5.112;2022-12-07T07:28:49;101865.22;;;5.38;100.00
62031;BME280;62035;52.094;5.112;2022-12-07T07:31:17;101860.91;;;5.36;100.00
62031;BME280;62035;52.094;5.112;2022-12-07T07:33:45;101863.63;;;5.35;100.00
62031;BME280;62035;52.094;5.112;2022-12-07T07:36:13;101864.25;;;5.24;100.00
62031;BME280;62035;52.094;5.112;2022-12-07T07:38:40;101862.88;;;5.33;100.00
62031;BME280;62035;52.094;5.112;2022-12-07T07:41:08;101869.09;;;5.32;100.00
62031;BME280;62035;52.094;5.112;2022-12-07T07:43:35;101866.63;;;5.29;100.00
62031;BME280;62035;52.094;5.112;2022-12-07T07:46:04;101868.16;;;5.33;100.00
62031;BME280;62035;52.094;5.112;2022-12-07T07:48:32;101877.25;;;5.13;100.00
62031;BME280;62035;52.094;5.112;2022-12-07T07:51:00;101867.56;;;5.28;100.00
62031;BME280;62035;52.094;5.112;2022-12-07T07:53:27;101873.50;;;5.17;100.00
62031;BME280;62035;52.094;5.112;2022-12-07T07:55:55;101868.06;;;5.34;100.00
62031;BME280;62035;52.094;5.112;2022-12-07T07:58:22;101876.03;;;5.19;100.00
62031;BME280;62035;52.094;5.112;2022-12-07T08:00:50;101872.56;;;5.18;100.00
62031;BME280;62035;52.094;5.112;2022-12-07T08:03:19;101871.63;;;5.19;100.00
62031;BME280;62035;52.094;5.112;2022-12-07T08:05:47;101882.09;;;5.05;100.00
62031;BME280;62035;52.094;5.112;2022-12-07T08:08:14;101876.66;;;5.08;100.00
62031;BME280;62035;52.094;5.112;2022-12-07T08:10:42;101876.03;;;5.19;100.00
62031;BME280;62035;52.094;5.112;2022-12-07T08:13:10;101871.63;;;5.33;100.00
62031;BME280;62035;52.094;5.112;2022-12-07T08:15:41;101876.16;;;5.31;100.00
62031;BME280;62035;52.094;5.112;2022-12-07T08:18:11;101877.00;;;5.32;100.00
62031;BME280;62035;52.094;5.112;2022-12-07T08:20:41;101856.75;;;5.32;100.00
62031;BME280;62035;52.094;5.112;2022-12-07T08:23:10;101875.56;;;5.56;100.00
62031;BME280;62035;52.094;5.112;2022-12-07T08:25:38;101896.91;;;5.82;100.00
62031;BME280;62035;52.094;5.112;2022-12-07T08:28:07;101890.91;;;5.94;100.00
62031;BME280;62035;52.094;5.112;2022-12-07T08:30:34;101889.97;;;5.95;100.00
62031;BME280;62035;52.094;5.112;2022-12-07T08:33:02;101895.50;;;6.05;100.00
62031;BME280;62035;52.094;5.112;2022-12-07T08:35:32;101887.88;;;6.14;100.00
62031;BME280;62035;52.094;5.112;2022-12-07T08:38:01;101892.28;;;6.42;100.00
62031;BME280;62035;52.094;5.112;2022-12-07T08:40:30;101897.38;;;6.45;100.00
62031;BME280;62035;52.094;5.112;2022-12-07T08:42:57;101896.03;;;6.52;100.00
62031;BME280;62035;52.094;5.112;2022-12-07T08:45:25;101887.06;;;6.55;100.00
62031;BME280;62035;52.094;5.112;2022-12-07T08:47:55;101885.59;;;6.78;100.00
62031;BME280;62035;52.094;5.112;2022-12-07T08:50:27;101874.56;;;6.71;100.00
62031;BME280;62035;52.094;5.112;2022-12-07T08:52:57;101876.59;;;6.80;100.00
62031;BME280;62035;52.094;5.112;2022-12-07T08:55:27;101894.97;;;6.69;100.00
62031;BME280;62035;52.094;5.112;2022-12-07T08:57:57;101893.13;;;7.11;100.00
62031;BME280;62035;52.094;5.112;2022-12-07T09:00:25;101888.06;;;7.20;100.00
62031;BME280;62035;52.094;5.112;2022-12-07T09:02:53;101892.41;;;7.21;100.00
62031;BME280;62035;52.094;5.112;2022-12-07T09:05:21;101886.03;;;7.11;100.00
62031;BME280;62035;52.094;5.112;2022-12-07T09:07:51;101884.19;;;6.99;100.00
62031;BME280;62035;52.094;5.112;2022-12-07T09:10:24;101876.00;;;7.16;100.00
62031;BME280;62035;52.094;5.112;2022-12-07T09:12:53;101884.59;;;7.32;100.00
62031;BME280;62035;52.094;5.112;2022-12-07T09:15:20;101874.03;;;7.45;100.00
62031;BME280;62035;52.094;5.112;2022-12-07T09:17:48;101867.28;;;7.54;100.00
62031;BME280;62035;52.094;5.112;2022-12-07T09:20:16;101862.28;;;7.62;100.00
62031;BME280;62035;52.094;5.112;2022-12-07T09:22:43;101859.22;;;7.55;100.00
62031;BME280;62035;52.094;5.112;2022-12-07T09:25:11;101866.84;;;7.47;100.00
62031;BME280;62035;52.094;5.112;2022-12-07T09:27:38;101868.63;;;7.47;100.00
62031;BME280;62035;52.094;5.112;2022-12-07T09:30:08;101877.44;;;7.47;100.00
62031;BME280;62035;52.094;5.112;2022-12-07T09:32:36;101886.97;;;7.62;100.00
62031;BME280;62035;52.094;5.112;2022-12-07T09:35:04;101882.41;;;7.64;100.00
62031;BME280;62035;52.094;5.112;2022-12-07T09:37:32;101882.22;;;7.80;100.00
62031;BME280;62035;52.094;5.112;2022-12-07T09:40:02;101882.00;;;7.83;100.00
62031;BME280;62035;52.094;5.112;2022-12-07T09:42:34;101868.53;;;7.74;100.00
62031;BME280;62035;52.094;5.112;2022-12-07T09:45:11;101874.88;;;7.71;100.00
62031;BME280;62035;52.094;5.112;2022-12-07T09:47:41;101880.31;;;7.57;100.00
62031;BME280;62035;52.094;5.112;2022-12-07T09:50:13;101847.22;;;7.37;100.00
62031;BME280;62035;52.094;5.112;2022-12-07T09:52:43;101847.63;;;7.31;100.00
62031;BME280;62035;52.094;5.112;2022-12-07T09:55:16;101868.00;;;7.43;100.00
62031;BME280;62035;52.094;5.112;2022-12-07T09:57:47;101876.22;;;7.26;100.00
62031;BME280;62035;52.094;5.112;2022-12-07T10:00:18;101874.81;;;7.20;100.00
62031;BME280;62035;52.094;5.112;2022-12-07T10:02:51;101877.66;;;7.57;100.00
62031;BME280;62035;52.094;5.112;2022-12-07T10:05:25;101872.13;;;7.73;100.00
62031;BME280;62035;52.094;5.112;2022-12-07T10:07:56;101866.94;;;7.84;100.00
62031;BME280;62035;52.094;5.112;2022-12-07T10:10:25;101861.34;;;7.88;100.00
62031;BME280;62035;52.094;5.112;2022-12-07T10:12:59;101846.28;;;7.63;100.00
62031;BME280;62035;52.094;5.112;2022-12-07T10:15:45;101843.19;;;7.44;100.00
62031;BME280;62035;52.094;5.112;2022-12-07T10:18:21;101844.06;;;7.45;100.00
62031;BME280;62035;52.094;5.112;2022-12-07T10:21:10;101835.78;;;7.36;100.00
62031;BME280;62035;52.094;5.112;2022-12-07T10:23:41;101829.00;;;7.32;100.00
62031;BME280;62035;52.094;5.112;2022-12-07T10:26:29;101844.19;;;7.56;100.00
62031;BME280;62035;52.094;5.112;2022-12-07T10:29:01;101838.44;;;7.75;100.00
62031;BME280;62035;52.094;5.112;2022-12-07T10:31:42;101834.47;;;8.06;100.00
62031;BME280;62035;52.094;5.112;2022-12-07T10:34:20;101830.75;;;8.21;100.00
62031;BME280;62035;52.094;5.112;2022-12-07T10:36:51;101826.22;;;8.47;100.00
62031;BME280;62035;52.094;5.112;2022-12-07T10:39:22;101819.22;;;8.46;100.00
62031;BME280;62035;52.094;5.112;2022-12-07T10:41:54;101817.59;;;8.80;100.00
62031;BME280;62035;52.094;5.112;2022-12-07T10:44:24;101817.06;;;8.98;100.00
62031;BME280;62035;52.094;5.112;2022-12-07T10:47:12;101820.53;;;8.88;100.00
62031;BME280;62035;52.094;5.112;2022-12-07T10:50:25;101821.09;;;8.80;100.00
62031;BME280;62035;52.094;5.112;2022-12-07T10:53:07;101821.38;;;8.64;100.00
62031;BME280;62035;52.094;5.112;2022-12-07T10:55:56;101810.69;;;8.17;100.00
62031;BME280;62035;52.094;5.112;2022-12-07T10:58:47;101826.19;;;8.35;100.00
62031;BME280;62035;52.094;5.112;2022-12-07T11:01:31;101826.06;;;8.24;100.00
62031;BME280;62035;52.094;5.112;2022-12-07T11:04:24;101819.22;;;8.46;100.00
62031;BME280;62035;52.094;5.112;2022-12-07T11:07:01;101818.13;;;8.37;100.00
62031;BME280;62035;52.094;5.112;2022-12-07T11:09:55;101816.19;;;8.39;100.00
62031;BME280;62035;52.094;5.112;2022-12-07T11:12:43;101807.09;;;8.54;100.00
62031;BME280;62035;52.094;5.112;2022-12-07T11:15:24;101802.75;;;8.53;100.00
62031;BME280;62035;52.094;5.112;2022-12-07T11:18:01;101794.06;;;8.51;100.00
62031;BME280;62035;52.094;5.112;2022-12-07T11:20:41;101804.22;;;8.57;100.00
62031;BME280;62035;52.094;5.112;2022-12-07T11:23:23;101798.31;;;8.78;100.00
62031;BME280;62035;52.094;5.112;2022-12-07T11:26:24;101799.63;;;8.83;100.00
62031;BME280;62035;52.094;5.112;2022-12-07T11:29:25;101784.81;;;8.92;100.00
62031;BME280;62035;52.094;5.112;2022-12-07T11:32:10;101786.56;;;9.04;100.00
62031;BME280;62035;52.094;5.112;2022-12-07T11:34:52;101778.59;;;9.04;100.00
62031;BME280;62035;52.094;5.112;2022-12-07T11:37:33;101770.47;;;8.94;100.00
62031;BME280;62035;52.094;5.112;2022-12-07T11:40:05;101756.13;;;8.62;100.00
62031;BME280;62035;52.094;5.112;2022-12-07T11:42:46;101767.41;;;8.53;100.00
62031;BME280;62035;52.094;5.112;2022-12-07T11:45:23;101770.38;;;8.37;100.00
62031;BME280;62035;52.094;5.112;2022-12-07T11:47:57;101762.19;;;8.27;100.00
62031;BME280;62035;52.094;5.112;2022-12-07T11:50:34;101758.97;;;8.11;100.00
62031;BME280;62035;52.094;5.112;2022-12-07T11:53:15;101752.50;;;8.02;100.00
62031;BME280;62035;52.094;5.112;2022-12-07T11:55:49;101755.94;;;7.92;100.00
62031;BME280;62035;52.094;5.112;2022-12-07T11:58:31;101763.59;;;7.84;100.00
62031;BME280;62035;52.094;5.112;2022-12-07T12:01:14;101752.50;;;8.02;100.00
62031;BME280;62035;52.094;5.112;2022-12-07T12:03:58;101750.81;;;8.01;100.00
62031;BME280;62035;52.094;5.112;2022-12-07T12:06:33;101737.28;;;7.93;100.00
62031;BME280;62035;52.094;5.112;2022-12-07T12:09:06;101731.78;;;7.96;100.00
62031;BME280;62035;52.094;5.112;2022-12-07T12:14:51;101722.56;;;7.89;100.00
62031;BME280;62035;52.094;5.112;2022-12-07T12:20:46;101735.22;;;8.10;100.00
62031;BME280;62035;52.094;5.112;2022-12-07T12:23:20;101735.50;;;8.18;100.00
62031;BME280;62035;52.094;5.112;2022-12-07T12:25:52;101731.25;;;8.15;100.00
62031;BME280;62035;52.094;5.112;2022-12-07T12:28:27;101726.19;;;8.12;100.00
62031;BME280;62035;52.094;5.112;2022-12-07T12:31:08;101728.78;;;8.25;100.00
62031;BME280;62035;52.094;5.112;2022-12-07T12:33:43;101729.97;;;8.33;100.00
62031;BME280;62035;52.094;5.112;2022-12-07T12:36:23;101720.22;;;8.21;100.00
62031;BME280;62035;52.094;5.112;2022-12-07T12:39:11;101719.53;;;8.07;100.00
62031;BME280;62035;52.094;5.112;2022-12-07T12:41:58;101716.97;;;8.05;100.00
62031;BME280;62035;52.094;5.112;2022-12-07T12:48:04;101708.03;;;7.95;100.00
62031;BME280;62035;52.094;5.112;2022-12-07T12:54:10;101707.28;;;7.93;100.00
62031;BME280;62035;52.094;5.112;2022-12-07T12:56:46;101705.59;;;7.92;100.00
62031;BME280;62035;52.094;5.112;2022-12-07T12:59:26;101701.66;;;7.97;100.00
62031;BME280;62035;52.094;5.112;2022-12-07T13:02:09;101699.84;;;7.98;100.00
62031;BME280;62035;52.094;5.112;2022-12-07T13:04:55;101694.88;;;7.93;100.00
62031;BME280;62035;52.094;5.112;2022-12-07T13:10:40;101694.44;;;7.99;100.00
62031;BME280;62035;52.094;5.112;2022-12-07T13:13:33;101681.22;;;8.11;100.00
62031;BME280;62035;52.094;5.112;2022-12-07T13:16:39;101676.59;;;8.25;100.00
62031;BME280;62035;52.094;5.112;2022-12-07T13:22:49;101668.75;;;8.48;100.00
62031;BME280;62035;52.094;5.112;2022-12-07T13:25:27;101675.09;;;8.80;100.00
62031;BME280;62035;52.094;5.112;2022-12-07T13:28:04;101664.88;;;8.87;100.00
62031;BME280;62035;52.094;5.112;2022-12-07T13:30:46;101658.09;;;8.83;100.00
62031;BME280;62035;52.094;5.112;2022-12-07T13:33:22;101665.84;;;8.86;100.00
62031;BME280;62035;52.094;5.112;2022-12-07T13:35:54;101679.25;;;8.25;100.00
62031;BME280;62035;52.094;5.112;2022-12-07T13:38:25;101690.19;;;7.60;100.00
62031;BME280;62035;52.094;5.112;2022-12-07T13:41:17;101689.28;;;7.23;100.00